createdAt,value
2018-04-14T00:00:19.375Z,9.10
2018-04-14T00:02:49.025Z,9.10
2018-04-14T00:05:18.664Z,9.20
2018-04-14T00:07:48.250Z,9.30
2018-04-14T00:10:20.546Z,9.40
2018-04-14T00:12:50.415Z,9.50
2018-04-14T00:15:20.842Z,9.40
2018-04-14T00:17:50.443Z,9.30
2018-04-14T00:20:19.966Z,9.30
2018-04-14T00:22:49.617Z,9.20
2018-04-14T00:25:19.915Z,8.90
2018-04-14T00:27:49.604Z,8.90
2018-04-14T00:30:19.202Z,8.80
2018-04-14T00:32:48.757Z,8.70
2018-04-14T00:35:19.360Z,8.60
2018-04-14T00:37:49.106Z,8.60
2018-04-14T00:40:19.925Z,8.70
2018-04-14T00:42:49.470Z,8.80
2018-04-14T00:45:26.040Z,8.80
2018-04-14T00:47:59.656Z,8.90
2018-04-14T00:50:30.128Z,8.90
2018-04-14T00:53:17.637Z,9.00
2018-04-14T00:55:47.246Z,9.00
2018-04-14T00:58:16.976Z,9.00
2018-04-14T01:00:46.777Z,8.90
2018-04-14T01:03:16.562Z,8.80
2018-04-14T01:05:46.245Z,8.60
2018-04-14T01:08:15.952Z,8.50
2018-04-14T01:10:46.473Z,8.30
2018-04-14T01:13:16.114Z,8.30
2018-04-14T01:15:45.993Z,8.30
2018-04-14T01:18:15.657Z,8.40
2018-04-14T01:20:46.372Z,8.40
2018-04-14T01:23:16.096Z,8.40
2018-04-14T01:25:49.032Z,8.40
2018-04-14T01:28:19.330Z,8.40
2018-04-14T01:30:49.091Z,8.40
2018-04-14T01:33:18.592Z,8.40
2018-04-14T01:35:48.435Z,8.40
2018-04-14T01:38:20.061Z,8.40
2018-04-14T01:40:50.603Z,8.20
2018-04-14T01:43:20.995Z,8.10
2018-04-14T01:45:51.413Z,8.10
2018-04-14T01:48:20.921Z,8.00
2018-04-14T01:50:51.266Z,7.80
2018-04-14T01:53:21.512Z,7.80
2018-04-14T01:55:51.126Z,7.70
2018-04-14T01:58:26.328Z,7.80
2018-04-14T02:00:55.984Z,7.70
2018-04-14T02:03:25.495Z,7.80
2018-04-14T02:05:55.431Z,7.70
2018-04-14T02:08:25.142Z,7.60
2018-04-14T02:10:54.944Z,7.50
2018-04-14T02:13:24.433Z,7.60
2018-04-14T02:15:54.289Z,7.60
2018-04-14T02:18:23.872Z,7.60
2018-04-14T02:20:53.415Z,7.70
2018-04-14T02:23:22.996Z,7.80
2018-04-14T02:25:52.523Z,7.90
2018-04-14T02:28:22.365Z,8.00
2018-04-14T02:30:51.946Z,8.00
2018-04-14T02:33:27.283Z,8.00
2018-04-14T02:35:58.592Z,8.10
2018-04-14T02:38:31.196Z,8.10
2018-04-14T02:41:04.519Z,7.90
2018-04-14T02:43:35.298Z,7.80
2018-04-14T02:46:04.946Z,7.70
2018-04-14T02:48:36.929Z,7.60
2018-04-14T02:51:06.836Z,7.60
2018-04-14T02:56:15.009Z,7.70
2018-04-14T02:58:45.041Z,7.60
2018-04-14T03:01:15.429Z,7.50
2018-04-14T03:03:45.847Z,7.40
2018-04-14T03:06:16.389Z,7.30
2018-04-14T03:08:45.963Z,7.20
2018-04-14T03:11:15.655Z,7.20
2018-04-14T03:13:46.332Z,7.10
2018-04-14T03:16:15.947Z,7.20
2018-04-14T03:18:45.776Z,7.30
2018-04-14T03:21:15.429Z,7.40
2018-04-14T03:23:57.322Z,7.50
2018-04-14T03:26:28.573Z,7.60
2018-04-14T03:28:58.113Z,7.60
2018-04-14T03:31:27.745Z,7.60
2018-04-14T03:33:57.921Z,7.60
2018-04-14T03:36:28.929Z,7.60
2018-04-14T03:38:58.433Z,7.50
2018-04-14T03:41:28.586Z,7.50
2018-04-14T03:43:58.124Z,7.40
2018-04-14T03:46:27.991Z,7.50
2018-04-14T03:48:57.507Z,7.50
2018-04-14T03:51:27.054Z,7.50
2018-04-14T03:54:12.515Z,7.50
2018-04-14T03:56:46.063Z,7.30
2018-04-14T03:59:15.738Z,7.20
2018-04-14T04:01:45.533Z,7.20
2018-04-14T04:04:15.120Z,7.10
2018-04-14T04:06:45.273Z,7.20
2018-04-14T04:09:14.768Z,7.20
2018-04-14T04:11:44.792Z,7.20
2018-04-14T04:14:15.063Z,7.30
2018-04-14T04:16:45.105Z,7.20
2018-04-14T04:19:32.114Z,7.30
2018-04-14T04:22:19.153Z,7.30
2018-04-14T04:28:04.792Z,7.20
2018-04-14T04:30:34.223Z,7.30
2018-04-14T04:33:03.491Z,7.30
2018-04-14T04:35:33.453Z,7.30
2018-04-14T04:38:04.612Z,7.30
2018-04-14T04:40:34.372Z,7.30
2018-04-14T04:43:04.842Z,7.30
2018-04-14T04:45:35.616Z,7.30
2018-04-14T04:48:05.889Z,7.40
2018-04-14T04:50:35.205Z,7.30
2018-04-14T04:53:04.697Z,7.40
2018-04-14T04:55:35.841Z,7.50
2018-04-14T04:58:05.320Z,7.60
2018-04-14T05:00:35.985Z,8.00
2018-04-14T05:03:05.196Z,7.90
2018-04-14T05:05:34.672Z,8.10
2018-04-14T05:08:04.015Z,8.20
2018-04-14T05:10:34.707Z,8.60
2018-04-14T05:13:04.751Z,8.60
2018-04-14T05:15:34.220Z,8.90
2018-04-14T05:18:03.466Z,9.20
2018-04-14T05:20:32.819Z,9.50
2018-04-14T05:23:03.177Z,10.10
2018-04-14T05:25:32.571Z,10.00
2018-04-14T05:28:02.673Z,10.70
2018-04-14T05:30:32.102Z,10.70
2018-04-14T05:33:02.219Z,11.40
2018-04-14T05:35:31.722Z,11.30
2018-04-14T05:38:02.983Z,11.50
2018-04-14T05:40:32.255Z,11.40
2018-04-14T05:43:01.665Z,11.30
2018-04-14T05:45:40.127Z,11.10
2018-04-14T05:48:09.759Z,11.10
2018-04-14T05:50:40.122Z,11.30
2018-04-14T05:53:09.536Z,11.20
2018-04-14T05:55:39.539Z,11.60
2018-04-14T05:58:09.854Z,12.10
2018-04-14T06:00:39.026Z,12.50
2018-04-14T06:03:09.361Z,12.80
2018-04-14T06:05:39.608Z,13.30
2018-04-14T06:08:08.986Z,13.20
2018-04-14T06:10:39.136Z,13.70
2018-04-14T06:13:09.032Z,13.70
2018-04-14T06:15:38.340Z,14.10
2018-04-14T06:18:07.629Z,14.40
2018-04-14T06:20:37.566Z,15.30
2018-04-14T06:23:07.647Z,15.30
2018-04-14T06:25:37.630Z,15.80
2018-04-14T06:28:06.962Z,15.90
2018-04-14T06:30:37.136Z,15.50
2018-04-14T06:33:06.746Z,15.40
2018-04-14T06:35:35.945Z,15.10
2018-04-14T06:38:05.770Z,15.60
2018-04-14T06:40:35.036Z,16.50
2018-04-14T06:43:06.613Z,17.10
2018-04-14T06:45:35.958Z,17.80
2018-04-14T06:48:05.336Z,18.40
2018-04-14T06:50:34.746Z,18.80
2018-04-14T06:53:04.234Z,19.20
2018-04-14T06:55:33.828Z,19.70
2018-04-14T06:58:03.267Z,19.90
2018-04-14T07:00:33.170Z,20.20
2018-04-14T07:03:02.629Z,20.30
2018-04-14T07:05:33.233Z,20.70
2018-04-14T07:08:03.934Z,20.60
2018-04-14T07:10:33.601Z,20.90
2018-04-14T07:13:04.405Z,21.20
2018-04-14T07:15:33.593Z,21.20
2018-04-14T07:18:02.838Z,21.40
2018-04-14T07:20:33.997Z,22.00
2018-04-14T07:23:03.909Z,21.90
2018-04-14T07:25:33.204Z,22.50
2018-04-14T07:28:03.377Z,22.80
2018-04-14T07:30:32.732Z,22.90
2018-04-14T07:33:02.150Z,23.40
2018-04-14T07:35:31.555Z,23.90
2018-04-14T07:38:00.923Z,24.10
2018-04-14T07:40:30.975Z,24.60
2018-04-14T07:43:01.133Z,24.50
2018-04-14T07:45:32.887Z,24.80
2018-04-14T07:48:02.247Z,25.20
2018-04-14T07:50:31.549Z,25.30
2018-04-14T07:53:00.965Z,25.60
2018-04-14T07:55:32.299Z,25.40
2018-04-14T07:58:02.411Z,25.00
2018-04-14T08:00:31.761Z,24.90
2018-04-14T08:03:02.102Z,25.00
2018-04-14T08:05:32.206Z,25.80
2018-04-14T08:08:01.445Z,25.70
2018-04-14T08:10:31.675Z,26.60
2018-04-14T08:13:01.062Z,26.50
2018-04-14T08:15:30.421Z,27.00
2018-04-14T08:17:59.806Z,27.60
2018-04-14T08:20:29.564Z,27.50
2018-04-14T08:23:01.209Z,27.40
2018-04-14T08:25:32.209Z,27.40
2018-04-14T08:28:01.544Z,27.40
2018-04-14T08:30:30.931Z,26.50
2018-04-14T08:33:05.068Z,26.60
2018-04-14T08:35:34.550Z,27.10
2018-04-14T08:38:04.101Z,27.60
2018-04-14T08:40:34.542Z,27.50
2018-04-14T08:43:04.470Z,26.80
2018-04-14T08:45:34.690Z,26.20
2018-04-14T08:48:04.090Z,26.10
2018-04-14T08:50:33.426Z,25.80
2018-04-14T08:53:02.651Z,26.50
2018-04-14T08:55:32.869Z,27.10
2018-04-14T08:58:02.837Z,27.00
2018-04-14T09:00:32.351Z,26.80
2018-04-14T09:03:02.513Z,27.40
2018-04-14T09:05:31.690Z,27.30
2018-04-14T09:08:00.964Z,27.50
2018-04-14T09:10:33.441Z,28.30
2018-04-14T09:13:02.786Z,28.90
2018-04-14T09:15:32.589Z,29.80
2018-04-14T09:18:02.380Z,30.50
2018-04-14T09:20:39.284Z,30.90
2018-04-14T09:23:14.406Z,30.80
2018-04-14T09:25:53.673Z,31.20
2018-04-14T09:28:24.064Z,31.10
2018-04-14T09:30:53.891Z,31.10
2018-04-14T09:33:23.581Z,31.00
2018-04-14T09:35:53.459Z,30.80
2018-04-14T09:38:23.907Z,30.40
2018-04-14T09:40:54.149Z,30.30
2018-04-14T09:43:24.777Z,29.90
2018-04-14T09:45:54.603Z,28.90
2018-04-14T09:48:24.537Z,27.80
2018-04-14T09:50:55.432Z,27.20
2018-04-14T09:53:26.873Z,25.90
2018-04-14T09:55:57.387Z,25.80
2018-04-14T09:58:27.679Z,25.60
2018-04-14T10:01:02.400Z,25.50
2018-04-14T10:03:32.100Z,25.10
2018-04-14T10:06:01.703Z,24.80
2018-04-14T10:08:31.490Z,24.60
2018-04-14T10:11:01.354Z,24.70
2018-04-14T10:13:39.564Z,24.40
2018-04-14T10:16:12.226Z,24.40
2018-04-14T10:18:43.458Z,24.80
2018-04-14T10:21:12.971Z,25.50
2018-04-14T10:23:42.948Z,26.00
2018-04-14T10:26:13.325Z,27.00
2018-04-14T10:28:43.652Z,26.90
2018-04-14T10:31:13.351Z,27.30
2018-04-14T10:33:43.478Z,27.10
2018-04-14T10:36:13.389Z,26.80
2018-04-14T10:38:44.236Z,27.70
2018-04-14T10:41:14.141Z,27.60
2018-04-14T10:43:44.977Z,28.60
2018-04-14T10:46:15.580Z,28.70
2018-04-14T10:48:47.619Z,27.80
2018-04-14T10:51:17.288Z,27.80
2018-04-14T10:53:46.936Z,27.20
2018-04-14T10:56:17.764Z,26.40
2018-04-14T10:58:48.751Z,26.30
2018-04-14T11:01:18.886Z,26.70
2018-04-14T11:03:49.549Z,26.80
2018-04-14T11:06:21.016Z,26.10
2018-04-14T11:08:52.401Z,25.40
2018-04-14T11:11:21.926Z,25.30
2018-04-14T11:13:52.552Z,25.30
2018-04-14T11:16:22.322Z,25.10
2018-04-14T11:18:52.924Z,24.80
2018-04-14T11:21:22.831Z,25.10
2018-04-14T11:23:53.972Z,25.70
2018-04-14T11:26:23.730Z,25.60
2018-04-14T11:28:54.497Z,26.30
2018-04-14T11:31:24.261Z,26.50
2018-04-14T11:33:55.450Z,27.00
2018-04-14T11:36:25.584Z,27.00
2018-04-14T11:38:56.379Z,26.10
2018-04-14T11:41:27.255Z,26.10
2018-04-14T11:43:58.288Z,25.60
2018-04-14T11:46:29.571Z,25.50
2018-04-14T11:48:59.109Z,25.70
2018-04-14T11:51:29.932Z,26.10
2018-04-14T11:54:00.859Z,26.00
2018-04-14T11:56:32.348Z,25.30
2018-04-14T11:59:02.155Z,25.30
2018-04-14T12:01:35.279Z,25.10
2018-04-14T12:04:05.750Z,25.10
2018-04-14T12:06:37.147Z,24.90
2018-04-14T12:09:14.705Z,25.10
2018-04-14T12:11:46.773Z,25.30
2018-04-14T12:14:18.539Z,25.30
2018-04-14T12:16:50.263Z,25.50
2018-04-14T12:19:20.173Z,25.40
2018-04-14T12:21:49.952Z,25.70
2018-04-14T12:24:19.979Z,25.40
2018-04-14T12:26:49.637Z,25.40
2018-04-14T12:29:19.362Z,25.50
2018-04-14T12:31:49.141Z,25.40
2018-04-14T12:34:18.899Z,25.40
2018-04-14T12:36:49.431Z,25.20
2018-04-14T12:39:20.013Z,24.80
2018-04-14T12:41:50.823Z,24.70
2018-04-14T12:44:21.384Z,23.70
2018-04-14T12:46:59.323Z,23.00
2018-04-14T12:49:29.294Z,22.90
2018-04-14T12:51:58.992Z,23.00
2018-04-14T12:54:28.691Z,23.20
2018-04-14T12:56:58.405Z,23.10
2018-04-14T12:59:27.991Z,22.90
2018-04-14T13:01:57.966Z,22.70
2018-04-14T13:04:28.717Z,22.30
2018-04-14T13:06:58.909Z,22.30
2018-04-14T13:09:29.368Z,22.10
2018-04-14T13:12:01.671Z,22.00
2018-04-14T13:14:33.037Z,22.10
2018-04-14T13:17:02.828Z,22.10
2018-04-14T13:19:33.096Z,22.40
2018-04-14T13:22:02.967Z,22.30
2018-04-14T13:24:33.297Z,22.10
2018-04-14T13:27:03.461Z,22.00
2018-04-14T13:29:33.409Z,21.90
2018-04-14T13:32:03.011Z,21.80
2018-04-14T13:34:33.325Z,22.20
2018-04-14T13:37:03.096Z,22.10
2018-04-14T13:39:32.784Z,22.10
2018-04-14T13:42:04.392Z,21.60
2018-04-14T13:44:34.591Z,21.40
2018-04-14T13:47:04.518Z,21.40
2018-04-14T13:49:34.815Z,21.20
2018-04-14T13:52:04.559Z,21.20
2018-04-14T13:54:35.872Z,21.30
2018-04-14T13:57:05.822Z,21.30
2018-04-14T13:59:35.842Z,21.50
2018-04-14T14:02:05.555Z,21.60
2018-04-14T14:04:35.253Z,21.40
2018-04-14T14:07:04.961Z,21.40
2018-04-14T14:09:34.541Z,21.20
2018-04-14T14:12:05.905Z,21.00
2018-04-14T14:14:35.907Z,20.90
2018-04-14T14:17:05.773Z,21.00
2018-04-14T14:19:36.386Z,21.10
2018-04-14T14:22:05.953Z,21.00
2018-04-14T14:24:36.034Z,20.90
2018-04-14T14:27:05.764Z,20.80
2018-04-14T14:29:35.393Z,20.80
2018-04-14T14:32:05.122Z,20.70
2018-04-14T14:34:34.715Z,20.60
2018-04-14T14:37:04.427Z,20.70
2018-04-14T14:39:41.103Z,20.60
2018-04-14T14:42:11.064Z,20.70
2018-04-14T14:44:40.932Z,20.70
2018-04-14T14:47:10.431Z,20.70
2018-04-14T14:49:40.078Z,20.70
2018-04-14T14:52:09.704Z,20.60
2018-04-14T14:54:39.615Z,20.60
2018-04-14T14:57:09.194Z,20.60
2018-04-14T14:59:38.887Z,20.50
2018-04-14T15:02:08.387Z,20.40
2018-04-14T15:04:38.012Z,20.30
2018-04-14T15:07:07.754Z,20.20
2018-04-14T15:09:38.258Z,20.20
2018-04-14T15:12:07.906Z,20.20
2018-04-14T15:14:37.484Z,20.20
2018-04-14T15:17:07.079Z,20.10
2018-04-14T15:19:37.045Z,20.20
2018-04-14T15:22:07.444Z,20.10
2018-04-14T15:24:37.040Z,20.00
2018-04-14T15:27:06.647Z,19.90
2018-04-14T15:29:36.243Z,19.80
2018-04-14T15:32:08.931Z,19.80
2018-04-14T15:34:52.627Z,19.70
2018-04-14T15:41:17.417Z,19.60
2018-04-14T15:43:48.059Z,19.50
2018-04-14T15:46:18.199Z,19.50
2018-04-14T15:48:48.842Z,19.50
2018-04-14T15:51:21.816Z,19.40
2018-04-14T15:53:51.858Z,19.30
2018-04-14T15:56:22.189Z,19.30
2018-04-14T15:58:52.412Z,19.30
2018-04-14T16:01:22.824Z,19.20
2018-04-14T16:03:54.533Z,19.20
2018-04-14T16:06:26.674Z,19.10
2018-04-14T16:08:57.685Z,19.10
2018-04-14T16:11:28.349Z,19.10
2018-04-14T16:13:58.363Z,19.00
2018-04-14T16:16:28.577Z,19.00
2018-04-14T16:18:59.111Z,19.00
2018-04-14T16:21:30.962Z,18.90
2018-04-14T16:24:01.999Z,18.80
2018-04-14T16:26:33.650Z,18.70
2018-04-14T16:29:04.797Z,18.60
2018-04-14T16:31:36.469Z,18.60
2018-04-14T16:34:07.404Z,18.50
2018-04-14T16:36:37.867Z,18.40
2018-04-14T16:39:08.146Z,18.40
2018-04-14T16:41:38.516Z,18.40
2018-04-14T16:44:09.826Z,18.30
2018-04-14T16:46:40.150Z,18.20
2018-04-14T16:49:11.180Z,18.20
2018-04-14T16:51:41.549Z,18.10
2018-04-14T16:54:12.279Z,18.10
2018-04-14T16:56:42.886Z,18.00
2018-04-14T16:59:13.814Z,17.80
2018-04-14T17:01:45.974Z,17.70
2018-04-14T17:04:16.251Z,17.70
2018-04-14T17:06:47.150Z,17.70
2018-04-14T17:09:17.808Z,17.70
2018-04-14T17:11:48.124Z,17.70
2018-04-14T17:14:18.108Z,17.60
2018-04-14T17:16:48.697Z,17.60
2018-04-14T17:19:20.046Z,17.60
2018-04-14T17:21:50.648Z,17.60
2018-04-14T17:24:21.061Z,17.50
2018-04-14T17:26:51.605Z,17.40
2018-04-14T17:29:22.743Z,17.30
2018-04-14T17:31:54.089Z,17.20
2018-04-14T17:34:24.605Z,17.20
2018-04-14T17:36:55.002Z,17.20
2018-04-14T17:39:25.364Z,17.10
2018-04-14T17:41:57.503Z,17.10
2018-04-14T17:44:27.402Z,17.00
2018-04-14T17:46:57.673Z,16.90
2018-04-14T17:49:27.822Z,16.70
2018-04-14T17:51:58.044Z,16.60
2018-04-14T17:54:28.383Z,16.50
2018-04-14T17:56:58.615Z,16.40
2018-04-14T17:59:28.738Z,16.30
2018-04-14T18:01:58.813Z,16.10
2018-04-14T18:04:29.739Z,15.90
2018-04-14T18:07:00.650Z,15.80
2018-04-14T18:09:30.920Z,15.70
2018-04-14T18:12:01.333Z,15.60
2018-04-14T18:14:40.496Z,15.50
2018-04-14T18:17:11.839Z,15.50
2018-04-14T18:19:41.965Z,15.40
2018-04-14T18:22:12.161Z,15.40
2018-04-14T18:24:44.637Z,15.20
2018-04-14T18:27:15.976Z,15.10
2018-04-14T18:29:46.335Z,15.10
2018-04-14T18:32:18.934Z,15.10
2018-04-14T18:34:49.150Z,15.00
2018-04-14T18:37:19.430Z,15.00
2018-04-14T18:39:50.582Z,15.00
2018-04-14T18:42:21.643Z,15.00
2018-04-14T18:44:51.660Z,14.90
2018-04-14T18:47:21.965Z,14.80
2018-04-14T18:49:54.780Z,14.80
2018-04-14T18:52:25.948Z,14.70
2018-04-14T18:54:56.051Z,14.70
2018-04-14T18:57:26.227Z,14.60
2018-04-14T18:59:56.254Z,14.60
2018-04-14T19:02:27.754Z,14.60
2018-04-14T19:04:58.659Z,14.60
2018-04-14T19:07:40.595Z,14.60
2018-04-14T19:10:16.909Z,14.60
2018-04-14T19:12:49.074Z,14.60
2018-04-14T19:15:20.568Z,14.60
2018-04-14T19:17:51.199Z,14.60
2018-04-14T19:20:21.462Z,14.60
2018-04-14T19:22:52.974Z,14.60
2018-04-14T19:25:23.215Z,14.60
2018-04-14T19:27:53.467Z,14.70
2018-04-14T19:30:23.830Z,14.60
2018-04-14T19:32:54.865Z,14.60
2018-04-14T19:35:25.102Z,14.50
2018-04-14T19:37:55.433Z,14.50
2018-04-14T19:40:26.576Z,14.50
2018-04-14T19:42:57.884Z,14.40
2018-04-14T19:45:32.300Z,14.30
2018-04-14T19:48:03.228Z,14.30
2018-04-14T19:50:33.641Z,14.20
2018-04-14T19:53:03.941Z,14.30
2018-04-14T19:55:34.233Z,14.20
2018-04-14T19:58:04.566Z,14.20
2018-04-14T20:00:35.023Z,14.10
2018-04-14T20:03:06.631Z,14.20
2018-04-14T20:05:37.293Z,14.20
2018-04-14T20:08:07.381Z,14.10
2018-04-14T20:10:49.367Z,14.10
2018-04-14T20:13:41.081Z,14.00
2018-04-14T20:16:38.910Z,14.00
2018-04-14T20:19:24.839Z,13.90
2018-04-14T20:21:58.803Z,13.80
2018-04-14T20:24:29.427Z,13.70
2018-04-14T20:27:00.515Z,13.70
2018-04-14T20:29:30.880Z,13.70
2018-04-14T20:32:01.841Z,13.70
2018-04-14T20:34:36.814Z,13.60
2018-04-14T20:37:10.676Z,13.60
2018-04-14T20:39:40.982Z,13.50
2018-04-14T20:42:12.038Z,13.50
2018-04-14T20:44:43.679Z,13.50
2018-04-14T20:47:16.611Z,13.50
2018-04-14T20:49:48.137Z,13.50
2018-04-14T20:52:19.873Z,13.50
2018-04-14T20:54:50.903Z,13.60
2018-04-14T20:57:22.068Z,13.50
2018-04-14T20:59:52.207Z,13.50
2018-04-14T21:02:23.335Z,13.60
2018-04-14T21:04:54.049Z,13.50
2018-04-14T21:07:25.433Z,13.60
2018-04-14T21:09:55.663Z,13.50
2018-04-14T21:12:27.288Z,13.70
2018-04-14T21:14:59.063Z,13.70
2018-04-14T21:17:30.002Z,13.70
2018-04-14T21:20:03.680Z,13.60
2018-04-14T21:22:37.393Z,13.60
2018-04-14T21:25:08.330Z,13.50
2018-04-14T21:27:38.565Z,13.50
2018-04-14T21:30:09.493Z,13.60
2018-04-14T21:32:40.498Z,13.50
2018-04-14T21:35:19.810Z,13.60
2018-04-14T21:37:54.001Z,13.50
2018-04-14T21:40:24.025Z,13.50
2018-04-14T21:42:53.903Z,13.50
2018-04-14T21:45:30.173Z,13.50
2018-04-14T21:48:00.065Z,13.40
2018-04-14T21:50:29.784Z,13.30
2018-04-14T21:52:59.287Z,13.30
2018-04-14T21:55:29.019Z,13.30
2018-04-14T21:57:58.785Z,13.30
2018-04-14T22:00:28.614Z,13.20
2018-04-14T22:02:58.251Z,13.10
2018-04-14T22:05:28.159Z,13.10
2018-04-14T22:07:58.782Z,13.00
2018-04-14T22:10:28.514Z,12.90
2018-04-14T22:12:58.212Z,13.10
2018-04-14T22:15:28.024Z,13.00
2018-04-14T22:17:57.830Z,13.00
2018-04-14T22:20:32.863Z,13.00
2018-04-14T22:23:02.453Z,13.10
2018-04-14T22:25:33.419Z,13.10
2018-04-14T22:28:03.874Z,13.10
2018-04-14T22:30:35.276Z,13.00
2018-04-14T22:33:13.195Z,13.10
2018-04-14T22:35:47.639Z,13.10
2018-04-14T22:38:17.931Z,13.10
2018-04-14T22:40:47.697Z,13.10
2018-04-14T22:43:18.057Z,13.10
2018-04-14T22:45:52.524Z,13.00
2018-04-14T22:48:25.079Z,13.20
2018-04-14T22:50:54.868Z,13.20
2018-04-14T22:53:29.253Z,13.20
2018-04-14T22:55:59.911Z,13.20
2018-04-14T22:58:34.273Z,13.30
2018-04-14T23:01:04.584Z,13.20
2018-04-14T23:03:39.683Z,13.30
2018-04-14T23:06:09.875Z,13.40
2018-04-14T23:08:42.977Z,13.40
2018-04-14T23:11:12.975Z,13.40
2018-04-14T23:13:42.950Z,13.40
2018-04-14T23:16:13.752Z,13.10
2018-04-14T23:18:44.761Z,13.00
2018-04-14T23:21:15.124Z,12.80
2018-04-14T23:23:50.783Z,12.60
2018-04-14T23:26:23.992Z,12.40
2018-04-14T23:28:54.731Z,12.30
2018-04-14T23:31:25.071Z,12.20
2018-04-14T23:33:54.777Z,12.20
2018-04-14T23:36:25.298Z,12.30
2018-04-14T23:38:55.898Z,12.20
2018-04-14T23:41:33.876Z,12.30
2018-04-14T23:44:04.646Z,12.40
2018-04-14T23:46:34.367Z,12.30
2018-04-14T23:49:04.483Z,12.40
2018-04-14T23:51:34.441Z,12.40
2018-04-14T23:54:04.137Z,12.50
2018-04-14T23:56:34.804Z,12.50
2018-04-14T23:59:06.048Z,12.50
